Time;durP1;ratioP1;P1;durP2;ratioP2;P2;SDS_P1;SDS_P2;PMS_P1;PMS_P2;Temp;Humidity;BMP_temperature;BMP_pressure;BME280_temperature;BME280_humidity;BME280_pressure;Samples;Min_cycle;Max_cycle;Signal;HPM_P1;HPM_P2
2021/09/21 00:00:40;;;;;;;;;;;15.80;99.90;;;;;;5072008;28;19924;-52
2021/09/21 00:03:44;;;;;;;;;;;15.80;99.90;;;;;;5072797;28;19919;-54
2021/09/21 00:06:48;;;;;;;;;;;15.80;99.90;;;;;;5071175;28;20390;-53
2021/09/21 00:09:52;;;;;;;;;;;15.90;99.90;;;;;;5071535;28;19912;-53
2021/09/21 00:12:56;;;;;;;;;;;15.90;99.90;;;;;;5072405;28;19920;-57
2021/09/21 00:16:01;;;;;;;;;;;16.00;99.90;;;;;;5070375;28;19913;-53
2021/09/21 00:19:07;;;;;;;;;;;16.00;99.90;;;;;;5071384;28;19919;-53
2021/09/21 00:22:11;;;;;;;;;;;16.00;99.90;;;;;;5072106;28;19927;-54
2021/09/21 00:25:15;;;;;;;;;;;16.00;99.90;;;;;;5071486;28;19917;-53
2021/09/21 00:28:19;;;;;;;;;;;16.00;99.90;;;;;;5071368;28;19923;-53
2021/09/21 00:31:24;;;;;;;;;;;16.00;99.90;;;;;;5059859;28;19916;-55
2021/09/21 00:34:37;;;;;;;;;;;15.90;99.90;;;;;;5071577;28;19923;-55
2021/09/21 00:37:40;;;;;;;;;;;15.80;99.90;;;;;;5067109;28;19927;-53
2021/09/21 00:40:45;;;;;;;;;;;15.80;99.90;;;;;;5053668;28;19917;-52
2021/09/21 00:43:49;;;;;;;;;;;15.70;99.90;;;;;;5064421;28;20421;-52
2021/09/21 00:46:53;;;;;;;;;;;15.60;99.90;;;;;;5066539;28;19989;-52
2021/09/21 00:49:57;;;;;;;;;;;15.50;99.90;;;;;;5071337;28;19923;-52
2021/09/21 00:53:01;;;;;;;;;;;15.50;99.90;;;;;;5051631;28;19916;-53
2021/09/21 00:56:05;;;;;;;;;;;15.60;99.90;;;;;;5068342;28;19912;-53
2021/09/21 00:59:09;;;;;;;;;;;15.60;99.90;;;;;;5070874;28;19915;-54
2021/09/21 01:02:13;;;;;;;;;;;15.60;99.90;;;;;;5071261;28;19923;-52
2021/09/21 01:05:18;;;;;;;;;;;15.60;99.90;;;;;;5070715;28;20298;-52
2021/09/21 01:08:28;;;;;;;;;;;15.50;99.90;;;;;;5057742;28;19920;-52
2021/09/21 01:11:32;;;;;;;;;;;15.40;99.90;;;;;;5071634;28;20387;-56
2021/09/21 01:14:37;;;;;;;;;;;15.40;99.90;;;;;;5071311;28;19920;-53
2021/09/21 01:17:41;;;;;;;;;;;15.40;99.90;;;;;;5069877;28;19924;-53
2021/09/21 01:20:45;;;;;;;;;;;15.30;99.90;;;;;;5071335;28;20425;-52
2021/09/21 01:23:50;;;;;;;;;;;15.30;99.90;;;;;;5070561;28;19920;-52
2021/09/21 01:26:56;;;;;;;;;;;15.30;99.90;;;;;;5069476;28;19909;-52
2021/09/21 01:30:01;;;;;;;;;;;15.30;99.90;;;;;;5070601;28;19935;-56
2021/09/21 01:33:04;;;;;;;;;;;15.30;99.90;;;;;;5070567;28;20302;-54
2021/09/21 01:36:09;;;;;;;;;;;15.30;99.90;;;;;;5069763;28;19924;-53
2021/09/21 01:39:13;;;;;;;;;;;15.40;99.90;;;;;;5070410;28;19920;-57
2021/09/21 01:42:18;;;;;;;;;;;15.40;99.90;;;;;;5070371;28;19939;-53
2021/09/21 01:45:22;;;;;;;;;;;15.50;99.90;;;;;;5057342;28;19920;-53
2021/09/21 01:48:26;;;;;;;;;;;15.60;99.90;;;;;;5056914;28;19913;-53
2021/09/21 01:51:36;;;;;;;;;;;15.60;99.90;;;;;;5070414;28;19920;-53
2021/09/21 02:01:40;;;;;;;;;;;15.50;99.90;;;;;;5046350;28;19927;-53
2021/09/21 02:04:43;;;;;;;;;;;15.40;99.90;;;;;;5070878;28;19927;-53
2021/09/21 02:07:47;;;;;;;;;;;15.30;99.90;;;;;;5069297;28;20307;-54
2021/09/21 02:10:51;;;;;;;;;;;15.20;99.90;;;;;;5069338;28;20378;-54
2021/09/21 02:13:57;;;;;;;;;;;15.10;99.90;;;;;;5070603;28;19919;-52
2021/09/21 02:17:01;;;;;;;;;;;15.10;99.90;;;;;;5069589;28;19919;-53
2021/09/21 02:20:05;;;;;;;;;;;15.00;99.90;;;;;;5069171;28;19919;-53
2021/09/21 02:23:09;;;;;;;;;;;15.00;99.90;;;;;;5070341;28;19927;-54
2021/09/21 02:26:13;;;;;;;;;;;15.00;99.90;;;;;;5069680;28;19924;-55
2021/09/21 02:29:17;;;;;;;;;;;15.10;99.90;;;;;;5068969;28;19920;-55
2021/09/21 02:32:21;;;;;;;;;;;15.00;99.90;;;;;;5069915;28;19923;-56
2021/09/21 02:35:25;;;;;;;;;;;15.10;99.90;;;;;;5069618;28;20397;-55
2021/09/21 02:38:29;;;;;;;;;;;15.20;99.90;;;;;;5068191;28;19917;-54
2021/09/21 02:41:33;;;;;;;;;;;15.30;99.90;;;;;;5069432;28;19916;-52
2021/09/21 02:44:37;;;;;;;;;;;15.30;99.90;;;;;;5070038;28;19935;-53
2021/09/21 02:47:41;;;;;;;;;;;15.30;99.90;;;;;;5068218;28;20298;-54
2021/09/21 02:50:45;;;;;;;;;;;15.00;99.90;;;;;;5068574;28;19931;-57
2021/09/21 02:53:49;;;;;;;;;;;14.80;99.90;;;;;;5070136;28;19935;-52
2021/09/21 02:56:53;;;;;;;;;;;14.70;99.90;;;;;;5068680;28;19943;-58
2021/09/21 02:59:57;;;;;;;;;;;14.60;99.90;;;;;;5069650;28;20291;-53
2021/09/21 03:03:03;;;;;;;;;;;14.60;99.90;;;;;;5069639;28;19928;-52
2021/09/21 03:06:10;;;;;;;;;;;14.60;99.90;;;;;;5068348;28;20394;-51
2021/09/21 03:09:35;;;;;;;;;;;14.60;99.90;;;;;;5068300;28;19920;-54
2021/09/21 03:19:07;;;;;;;;;;;14.60;99.90;;;;;;5068111;28;20299;-52
2021/09/21 03:22:11;;;;;;;;;;;14.60;99.90;;;;;;5068710;28;20405;-52
2021/09/21 03:25:15;;;;;;;;;;;14.60;99.90;;;;;;5069751;28;19924;-54
2021/09/21 03:28:20;;;;;;;;;;;14.70;99.90;;;;;;5067665;28;19939;-53
2021/09/21 03:31:24;;;;;;;;;;;14.70;99.90;;;;;;5068554;28;19919;-52
2021/09/21 03:34:28;;;;;;;;;;;14.70;99.90;;;;;;5069266;28;19983;-55
2021/09/21 03:37:31;;;;;;;;;;;14.70;99.90;;;;;;5068237;28;19923;-52
2021/09/21 03:40:36;;;;;;;;;;;14.60;99.90;;;;;;5056032;28;19919;-56
2021/09/21 03:43:40;;;;;;;;;;;14.60;99.90;;;;;;5069454;28;19918;-56
2021/09/21 03:46:44;;;;;;;;;;;14.60;99.90;;;;;;5068941;28;20405;-52
2021/09/21 03:49:48;;;;;;;;;;;14.60;99.90;;;;;;5070891;28;19992;-52
2021/09/21 03:52:52;;;;;;;;;;;14.70;99.90;;;;;;5053008;28;20311;-53
2021/09/21 03:55:56;;;;;;;;;;;14.70;99.90;;;;;;5070615;28;19919;-52
2021/09/21 03:59:00;;;;;;;;;;;14.90;99.90;;;;;;5071428;28;20398;-56
2021/09/21 04:02:05;;;;;;;;;;;14.90;99.90;;;;;;5072470;28;20390;-56
2021/09/21 04:05:09;;;;;;;;;;;15.00;99.90;;;;;;5072099;28;20397;-56
2021/09/21 04:08:13;;;;;;;;;;;15.00;99.90;;;;;;5071638;28;19971;-52
2021/09/21 04:11:17;;;;;;;;;;;15.10;99.90;;;;;;5071829;28;19927;-52
2021/09/21 04:14:21;;;;;;;;;;;15.20;99.90;;;;;;5072274;28;19917;-54
2021/09/21 04:17:25;;;;;;;;;;;15.20;99.90;;;;;;5071406;28;19915;-53
2021/09/21 04:20:30;;;;;;;;;;;15.30;99.90;;;;;;5071482;28;19923;-52
2021/09/21 04:23:35;;;;;;;;;;;15.40;99.90;;;;;;5072409;28;19920;-53
2021/09/21 04:26:39;;;;;;;;;;;15.40;99.90;;;;;;5071089;28;20323;-53
2021/09/21 04:29:42;;;;;;;;;;;15.50;99.90;;;;;;5071069;28;19920;-53
2021/09/21 04:32:47;;;;;;;;;;;15.50;99.90;;;;;;5071542;28;19923;-53
2021/09/21 04:35:52;;;;;;;;;;;15.60;99.90;;;;;;5071157;28;19919;-55
2021/09/21 04:38:57;;;;;;;;;;;15.60;99.90;;;;;;5070425;28;19920;-55
2021/09/21 04:42:01;;;;;;;;;;;15.60;99.90;;;;;;5071719;28;19924;-54
2021/09/21 04:45:05;;;;;;;;;;;15.60;99.90;;;;;;5071282;28;19913;-56
2021/09/21 04:48:09;;;;;;;;;;;15.60;99.90;;;;;;5058352;28;19919;-52
2021/09/21 04:51:13;;;;;;;;;;;15.60;99.90;;;;;;5058895;28;19919;-53
2021/09/21 04:54:17;;;;;;;;;;;15.60;99.90;;;;;;5071331;28;19919;-52
2021/09/21 04:57:21;;;;;;;;;;;15.60;99.90;;;;;;5070672;28;20415;-56
2021/09/21 05:00:25;;;;;;;;;;;15.60;99.90;;;;;;5070416;28;19919;-52
2021/09/21 05:03:29;;;;;;;;;;;15.60;99.90;;;;;;5071655;28;20302;-55
2021/09/21 05:06:33;;;;;;;;;;;15.50;99.90;;;;;;5070418;28;19939;-52
2021/09/21 05:09:37;;;;;;;;;;;15.50;99.90;;;;;;5070961;28;19927;-52
2021/09/21 05:12:41;;;;;;;;;;;15.40;99.90;;;;;;5071113;28;19943;-53
2021/09/21 05:15:45;;;;;;;;;;;15.50;99.90;;;;;;5070315;28;19920;-52
2021/09/21 05:18:49;;;;;;;;;;;15.50;99.90;;;;;;5070581;28;19917;-52
2021/09/21 05:21:53;;;;;;;;;;;15.50;99.90;;;;;;5071044;28;19928;-57
2021/09/21 05:24:57;;;;;;;;;;;15.60;99.90;;;;;;5069842;28;19919;-52
2021/09/21 05:28:02;;;;;;;;;;;15.60;99.90;;;;;;5052769;28;20394;-54
2021/09/21 05:31:05;;;;;;;;;;;15.70;99.90;;;;;;5050190;28;19916;-52
2021/09/21 05:34:09;;;;;;;;;;;15.60;99.90;;;;;;5065658;28;20413;-51
2021/09/21 05:37:14;;;;;;;;;;;15.60;99.90;;;;;;5059011;28;20390;-54
2021/09/21 05:40:19;;;;;;;;;;;15.70;99.90;;;;;;5070605;28;19971;-52
2021/09/21 05:43:25;;;;;;;;;;;15.70;99.90;;;;;;5070180;28;19939;-53
2021/09/21 05:46:28;;;;;;;;;;;15.60;99.90;;;;;;5069899;28;19940;-58
2021/09/21 05:49:32;;;;;;;;;;;15.60;99.90;;;;;;5058231;28;19913;-53
2021/09/21 05:52:37;;;;;;;;;;;15.70;99.90;;;;;;5069787;28;20824;-53
2021/09/21 05:55:41;;;;;;;;;;;15.80;99.90;;;;;;5068718;28;19928;-55
2021/09/21 05:58:45;;;;;;;;;;;15.80;99.90;;;;;;5069926;28;19919;-53
2021/09/21 06:01:51;;;;;;;;;;;15.80;99.90;;;;;;5066434;28;20441;-55
2021/09/21 06:04:54;;;;;;;;;;;15.90;99.90;;;;;;5055207;28;19928;-55
2021/09/21 06:07:58;;;;;;;;;;;15.90;99.90;;;;;;5053408;28;19920;-54
2021/09/21 06:11:02;;;;;;;;;;;16.00;99.90;;;;;;5051986;28;19920;-56
2021/09/21 06:14:07;;;;;;;;;;;16.10;99.90;;;;;;5065716;28;19920;-53
2021/09/21 06:17:11;;;;;;;;;;;16.30;99.90;;;;;;5065814;28;19916;-55
2021/09/21 06:20:15;;;;;;;;;;;16.50;99.90;;;;;;5065686;28;19919;-54
2021/09/21 06:23:19;;;;;;;;;;;16.70;99.90;;;;;;5049269;28;19943;-54
2021/09/21 06:26:23;;;;;;;;;;;16.70;99.90;;;;;;5055737;28;19921;-53
2021/09/21 06:29:27;;;;;;;;;;;16.80;99.90;;;;;;5052851;28;20303;-52
2021/09/21 06:32:32;;;;;;;;;;;16.80;99.90;;;;;;5056648;28;19916;-53
2021/09/21 06:35:37;;;;;;;;;;;16.80;99.90;;;;;;5068822;28;19936;-55
2021/09/21 06:38:41;;;;;;;;;;;16.90;99.90;;;;;;5057290;28;20410;-59
2021/09/21 06:41:46;;;;;;;;;;;16.90;99.90;;;;;;5057716;28;19916;-52
2021/09/21 06:44:50;;;;;;;;;;;17.00;99.90;;;;;;5063091;28;20334;-54
2021/09/21 06:47:54;;;;;;;;;;;17.10;99.90;;;;;;5055683;28;19917;-52
2021/09/21 06:50:58;;;;;;;;;;;17.10;99.90;;;;;;5069476;28;19920;-52
2021/09/21 06:54:04;;;;;;;;;;;17.20;99.90;;;;;;5065017;28;19924;-57
2021/09/21 06:57:09;;;;;;;;;;;17.40;99.90;;;;;;5069291;28;19951;-53
2021/09/21 07:00:13;;;;;;;;;;;17.50;99.90;;;;;;5063091;28;19924;-53
2021/09/21 07:03:16;;;;;;;;;;;17.70;99.90;;;;;;5060409;28;19917;-52
2021/09/21 07:06:20;;;;;;;;;;;17.90;99.90;;;;;;5054647;28;19924;-54
2021/09/21 07:09:25;;;;;;;;;;;18.20;99.90;;;;;;5060413;28;20294;-57
2021/09/21 07:12:29;;;;;;;;;;;18.30;99.90;;;;;;5053088;28;19912;-55
2021/09/21 07:15:33;;;;;;;;;;;18.50;99.90;;;;;;5053502;28;19935;-53
2021/09/21 07:18:38;;;;;;;;;;;18.80;99.90;;;;;;5053155;28;20416;-53
2021/09/21 07:21:47;;;;;;;;;;;19.00;99.90;;;;;;5053275;28;19923;-54
2021/09/21 07:24:51;;;;;;;;;;;19.20;99.90;;;;;;5064023;28;19916;-54
2021/09/21 07:27:55;;;;;;;;;;;19.50;99.90;;;;;;5063322;28;19936;-53
2021/09/21 07:31:00;;;;;;;;;;;20.00;99.90;;;;;;5063207;28;19920;-54
2021/09/21 07:34:04;;;;;;;;;;;20.80;99.90;;;;;;5063805;28;19924;-53
2021/09/21 07:37:09;;;;;;;;;;;23.00;99.90;;;;;;5060663;28;19919;-58
2021/09/21 07:40:13;;;;;;;;;;;25.90;99.90;;;;;;5069399;28;19912;-53
2021/09/21 07:43:18;;;;;;;;;;;27.40;99.90;;;;;;5060545;28;19924;-56
2021/09/21 07:46:22;;;;;;;;;;;27.90;99.90;;;;;;5055222;28;19924;-55
2021/09/21 07:49:27;;;;;;;;;;;26.80;99.90;;;;;;5053482;28;19913;-53
2021/09/21 07:52:33;;;;;;;;;;;27.20;99.90;;;;;;5060191;28;19920;-53
2021/09/21 07:55:37;;;;;;;;;;;27.50;99.90;;;;;;5058900;28;20397;-53
2021/09/21 07:58:42;;;;;;;;;;;24.90;99.90;;;;;;5055662;28;19924;-52
2021/09/21 08:01:46;;;;;;;;;;;24.60;99.90;;;;;;5064585;28;19923;-52
2021/09/21 08:04:50;;;;;;;;;;;23.30;99.90;;;;;;5062282;28;19924;-52
2021/09/21 08:07:54;;;;;;;;;;;21.70;99.90;;;;;;5068075;28;19948;-54
2021/09/21 08:11:01;;;;;;;;;;;21.70;99.90;;;;;;5054075;28;20380;-56
2021/09/21 08:14:06;;;;;;;;;;;21.40;99.90;;;;;;5064278;28;20422;-58
2021/09/21 08:17:10;;;;;;;;;;;20.70;99.90;;;;;;5056803;28;20445;-55
2021/09/21 08:20:14;;;;;;;;;;;20.30;99.90;;;;;;5057493;28;19924;-55
2021/09/21 08:23:20;;;;;;;;;;;19.80;99.90;;;;;;5064615;28;19923;-52
2021/09/21 08:26:24;;;;;;;;;;;20.00;99.90;;;;;;5053140;28;19924;-53
2021/09/21 08:29:28;;;;;;;;;;;20.00;99.90;;;;;;5068308;28;19917;-52
2021/09/21 08:32:32;;;;;;;;;;;21.10;99.90;;;;;;5065629;28;19920;-53
2021/09/21 08:35:36;;;;;;;;;;;22.20;99.90;;;;;;5055199;28;19919;-56
2021/09/21 08:38:40;;;;;;;;;;;24.20;99.90;;;;;;5056413;28;19928;-60
2021/09/21 08:41:44;;;;;;;;;;;27.10;99.90;;;;;;5062958;28;20319;-55
2021/09/21 08:44:50;;;;;;;;;;;28.30;99.90;;;;;;5059139;28;19920;-53
2021/09/21 08:47:54;;;;;;;;;;;30.00;95.90;;;;;;5062442;28;19968;-56
2021/09/21 08:50:58;;;;;;;;;;;30.90;95.40;;;;;;5070813;28;19923;-53
2021/09/21 08:54:02;;;;;;;;;;;30.60;92.60;;;;;;5058830;28;20302;-55
2021/09/21 08:57:07;;;;;;;;;;;32.40;92.40;;;;;;5065639;28;19919;-56
2021/09/21 09:00:13;;;;;;;;;;;29.90;92.70;;;;;;5069312;28;19917;-54
2021/09/21 09:03:17;;;;;;;;;;;27.80;95.00;;;;;;5055935;28;20393;-59
2021/09/21 09:06:21;;;;;;;;;;;26.10;97.40;;;;;;5056309;28;19920;-52
2021/09/21 09:09:27;;;;;;;;;;;26.30;98.50;;;;;;5057826;28;20389;-54
2021/09/21 09:12:32;;;;;;;;;;;25.40;99.60;;;;;;5055416;28;19924;-53
2021/09/21 09:15:36;;;;;;;;;;;25.20;99.90;;;;;;5068572;28;19919;-53
2021/09/21 09:18:41;;;;;;;;;;;24.10;99.90;;;;;;5058618;28;19913;-56
2021/09/21 09:21:49;;;;;;;;;;;27.70;99.90;;;;;;5066088;28;19923;-53
2021/09/21 09:24:54;;;;;;;;;;;28.50;96.50;;;;;;5056486;28;19920;-53
2021/09/21 09:27:58;;;;;;;;;;;31.20;94.20;;;;;;5052621;28;19927;-56
2021/09/21 09:31:02;;;;;;;;;;;32.30;92.60;;;;;;5061577;28;19919;-54
2021/09/21 09:34:13;;;;;;;;;;;33.50;92.20;;;;;;5056021;28;19935;-54
2021/09/21 09:37:18;;;;;;;;;;;32.20;88.70;;;;;;5052510;28;19927;-53
2021/09/21 09:40:22;;;;;;;;;;;33.30;87.00;;;;;;5055615;28;19936;-54
2021/09/21 09:43:27;;;;;;;;;;;34.60;87.40;;;;;;5057898;28;19940;-56
2021/09/21 09:46:40;;;;;;;;;;;35.30;85.40;;;;;;5057790;28;19916;-54
2021/09/21 09:49:45;;;;;;;;;;;36.00;81.50;;;;;;5064380;28;19920;-52
2021/09/21 09:52:49;;;;;;;;;;;35.10;79.90;;;;;;5056290;28;19990;-58
2021/09/21 09:55:58;;;;;;;;;;;33.30;81.90;;;;;;5062177;28;19912;-54
2021/09/21 09:59:02;;;;;;;;;;;34.10;84.00;;;;;;5070798;28;19927;-60
2021/09/21 10:02:07;;;;;;;;;;;36.90;81.20;;;;;;5065371;28;19943;-56
2021/09/21 10:05:11;;;;;;;;;;;35.10;77.90;;;;;;5052616;28;19940;-52
2021/09/21 10:08:16;;;;;;;;;;;36.20;77.10;;;;;;5070812;28;19919;-54
2021/09/21 10:11:20;;;;;;;;;;;37.60;76.90;;;;;;5069669;28;19919;-54
2021/09/21 10:14:25;;;;;;;;;;;37.40;75.80;;;;;;5070351;28;19924;-56
2021/09/21 10:17:33;;;;;;;;;;;33.90;77.20;;;;;;5070905;28;20362;-55
2021/09/21 10:20:40;;;;;;;;;;;33.90;79.80;;;;;;5065363;28;19920;-53
2021/09/21 10:23:46;;;;;;;;;;;34.70;77.70;;;;;;5069649;28;19923;-54
2021/09/21 10:26:59;;;;;;;;;;;32.20;80.80;;;;;;5065956;28;19951;-51
2021/09/21 10:30:04;;;;;;;;;;;36.00;78.20;;;;;;5066405;28;20307;-56
2021/09/21 10:33:15;;;;;;;;;;;39.00;74.60;;;;;;5058741;28;19939;-58
2021/09/21 10:36:21;;;;;;;;;;;37.20;74.00;;;;;;5058743;28;19924;-56
2021/09/21 10:39:25;;;;;;;;;;;37.90;73.70;;;;;;5054482;28;20314;-53
2021/09/21 10:42:30;;;;;;;;;;;39.40;73.00;;;;;;5063148;28;19917;-53
2021/09/21 10:45:34;;;;;;;;;;;41.00;71.60;;;;;;5069807;28;19935;-59
2021/09/21 10:48:39;;;;;;;;;;;41.70;67.30;;;;;;5058487;28;19920;-54
2021/09/21 10:51:47;;;;;;;;;;;42.70;66.10;;;;;;5060707;28;19920;-51
2021/09/21 10:54:55;;;;;;;;;;;40.90;67.00;;;;;;5052917;28;20409;-59
2021/09/21 10:58:03;;;;;;;;;;;42.00;65.40;;;;;;5049362;28;19963;-53
2021/09/21 11:01:08;;;;;;;;;;;42.70;65.00;;;;;;5068640;28;19920;-56
2021/09/21 11:04:11;;;;;;;;;;;41.20;63.00;;;;;;5069114;28;19923;-53
2021/09/21 11:07:16;;;;;;;;;;;38.50;66.00;;;;;;5068923;28;19912;-52
2021/09/21 11:10:21;;;;;;;;;;;39.20;64.30;;;;;;5068447;28;20283;-55
2021/09/21 11:13:26;;;;;;;;;;;40.20;64.80;;;;;;5066658;28;19919;-55
2021/09/21 11:16:30;;;;;;;;;;;38.10;63.20;;;;;;5057178;28;20870;-55
2021/09/21 11:19:35;;;;;;;;;;;39.60;63.40;;;;;;5063489;28;20016;-58
2021/09/21 11:22:40;;;;;;;;;;;38.40;65.40;;;;;;5051883;28;19917;-55
2021/09/21 11:25:44;;;;;;;;;;;40.60;63.40;;;;;;5056113;28;20426;-55
2021/09/21 11:28:49;;;;;;;;;;;39.90;59.80;;;;;;5051468;28;19936;-52
2021/09/21 11:31:53;;;;;;;;;;;38.60;60.90;;;;;;5058678;28;19924;-59
2021/09/21 11:35:02;;;;;;;;;;;39.30;61.20;;;;;;5054872;28;19916;-55
2021/09/21 11:38:08;;;;;;;;;;;40.10;61.40;;;;;;5058073;28;19913;-52
2021/09/21 11:41:13;;;;;;;;;;;42.20;60.50;;;;;;5057219;28;20394;-55
2021/09/21 11:44:21;;;;;;;;;;;43.80;58.40;;;;;;5071545;22;19924;-73
2021/09/21 11:47:33;;;;;;;;;;;44.70;57.40;;;;;;5063827;28;19920;-73
2021/09/21 11:50:40;;;;;;;;;;;39.60;58.40;;;;;;5063447;28;19924;-71
2021/09/21 11:53:44;;;;;;;;;;;39.10;59.50;;;;;;5057056;28;19931;-73
2021/09/21 11:56:48;;;;;;;;;;;38.80;59.90;;;;;;5068880;28;19919;-72
2021/09/21 11:59:54;;;;;;;;;;;35.10;62.40;;;;;;5057815;28;19913;-72
2021/09/21 12:03:00;;;;;;;;;;;35.20;65.60;;;;;;5062065;28;20365;-73
2021/09/21 12:06:05;;;;;;;;;;;38.80;62.40;;;;;;5069424;28;19920;-72
2021/09/21 12:09:08;;;;;;;;;;;41.60;60.80;;;;;;5050351;28;20035;-73
2021/09/21 12:12:21;;;;;;;;;;;43.30;58.20;;;;;;5066165;28;20392;-72
2021/09/21 12:15:25;;;;;;;;;;;44.90;56.30;;;;;;5072745;28;19920;-72
2021/09/21 12:18:31;;;;;;;;;;;45.70;54.80;;;;;;5064498;28;19924;-73
2021/09/21 12:21:40;;;;;;;;;;;45.90;53.60;;;;;;5066519;28;19920;-73
2021/09/21 12:24:44;;;;;;;;;;;45.60;53.70;;;;;;5057007;28;19923;-73
2021/09/21 12:27:53;;;;;;;;;;;43.00;55.20;;;;;;5064049;28;19923;-73
2021/09/21 12:30:59;;;;;;;;;;;39.40;56.30;;;;;;5057544;28;19923;-73
2021/09/21 12:34:07;;;;;;;;;;;36.80;60.00;;;;;;5060523;28;20282;-73
2021/09/21 12:37:12;;;;;;;;;;;36.20;62.30;;;;;;5073814;28;19919;-73
2021/09/21 12:40:16;;;;;;;;;;;37.30;60.60;;;;;;5062055;28;20275;-73
2021/09/21 12:43:22;;;;;;;;;;;36.50;60.70;;;;;;5066649;28;19935;-73
2021/09/21 12:46:29;;;;;;;;;;;35.20;62.20;;;;;;5056523;28;19924;-74
2021/09/21 12:49:41;;;;;;;;;;;34.30;63.30;;;;;;5071045;28;19920;-73
2021/09/21 12:53:04;;;;;;;;;;;33.60;64.50;;;;;;5063976;28;19919;-75
2021/09/21 12:56:12;;;;;;;;;;;32.90;66.40;;;;;;5046682;28;19924;-76
2021/09/21 12:59:18;;;;;;;;;;;32.40;66.90;;;;;;5052266;28;19940;-75
2021/09/21 13:02:22;;;;;;;;;;;32.00;66.60;;;;;;5063295;28;20400;-76
2021/09/21 13:05:26;;;;;;;;;;;31.70;67.70;;;;;;5061673;28;20607;-75
2021/09/21 13:08:32;;;;;;;;;;;31.30;68.20;;;;;;5060719;28;19924;-75
2021/09/21 13:11:36;;;;;;;;;;;31.80;68.20;;;;;;5061164;28;19924;-75
2021/09/21 13:14:41;;;;;;;;;;;32.40;67.50;;;;;;5065879;28;19920;-75
2021/09/21 13:17:45;;;;;;;;;;;31.90;67.70;;;;;;5057458;28;19923;-75
2021/09/21 13:20:49;;;;;;;;;;;31.50;67.90;;;;;;5055941;28;20386;-75
2021/09/21 13:23:53;;;;;;;;;;;31.10;67.30;;;;;;5064178;28;19924;-75
2021/09/21 13:26:57;;;;;;;;;;;31.00;68.50;;;;;;5062630;28;20394;-76
2021/09/21 13:30:03;;;;;;;;;;;33.20;65.80;;;;;;5066607;28;19923;-74
2021/09/21 13:33:08;;;;;;;;;;;35.60;61.70;;;;;;5064012;28;19919;-75
2021/09/21 13:36:12;;;;;;;;;;;36.90;60.80;;;;;;5061732;28;19923;-76
2021/09/21 13:39:17;;;;;;;;;;;38.20;58.40;;;;;;5063151;28;20289;-76
2021/09/21 13:42:22;;;;;;;;;;;39.20;57.60;;;;;;5060643;28;19924;-76
2021/09/21 13:45:27;;;;;;;;;;;40.10;55.90;;;;;;5068241;28;19924;-73
2021/09/21 13:48:31;;;;;;;;;;;40.20;55.80;;;;;;5071006;28;19912;-75
2021/09/21 13:51:34;;;;;;;;;;;38.20;58.20;;;;;;5050309;28;20390;-76
2021/09/21 13:54:38;;;;;;;;;;;36.60;59.60;;;;;;5051772;28;20275;-75
2021/09/21 13:57:43;;;;;;;;;;;35.80;60.80;;;;;;5061282;28;19923;-75
2021/09/21 14:00:47;;;;;;;;;;;36.30;60.80;;;;;;5069257;28;20403;-76
2021/09/21 14:03:51;;;;;;;;;;;37.00;60.00;;;;;;5061874;28;19924;-76
2021/09/21 14:06:55;;;;;;;;;;;37.70;59.60;;;;;;5070542;28;19924;-76
2021/09/21 14:10:00;;;;;;;;;;;38.30;58.90;;;;;;5068814;28;19935;-76
2021/09/21 14:13:05;;;;;;;;;;;38.60;58.70;;;;;;5070111;28;19931;-75
2021/09/21 14:16:09;;;;;;;;;;;38.60;58.80;;;;;;5062173;28;19920;-77
2021/09/21 14:19:13;;;;;;;;;;;37.60;59.20;;;;;;5071247;28;19924;-76
2021/09/21 14:22:17;;;;;;;;;;;37.40;59.90;;;;;;5070266;28;19923;-76
2021/09/21 14:25:21;;;;;;;;;;;36.50;60.00;;;;;;5058706;28;19935;-75
2021/09/21 14:28:25;;;;;;;;;;;35.80;61.40;;;;;;5066313;28;19927;-76
2021/09/21 14:31:29;;;;;;;;;;;35.30;62.10;;;;;;5069970;28;19916;-75
2021/09/21 14:34:34;;;;;;;;;;;35.10;62.40;;;;;;5054025;28;19920;-76
2021/09/21 14:37:39;;;;;;;;;;;35.00;62.40;;;;;;5064224;28;19920;-75
2021/09/21 14:40:43;;;;;;;;;;;34.40;62.50;;;;;;5069226;28;19912;-75
2021/09/21 14:43:47;;;;;;;;;;;34.30;63.70;;;;;;5064430;28;20249;-76
2021/09/21 14:46:51;;;;;;;;;;;34.30;64.10;;;;;;5054754;28;19920;-76
2021/09/21 14:49:55;;;;;;;;;;;34.00;64.10;;;;;;5060210;28;20280;-76
2021/09/21 14:53:01;;;;;;;;;;;33.40;65.30;;;;;;5056812;28;19920;-74
2021/09/21 14:56:06;;;;;;;;;;;32.50;66.20;;;;;;5068702;28;20386;-74
2021/09/21 14:59:10;;;;;;;;;;;31.40;66.10;;;;;;5068194;28;19924;-75
2021/09/21 15:02:14;;;;;;;;;;;29.90;69.50;;;;;;5069557;28;19924;-76
2021/09/21 15:05:19;;;;;;;;;;;29.80;67.80;;;;;;5059277;28;19917;-75
2021/09/21 15:08:24;;;;;;;;;;;29.90;66.50;;;;;;5059174;28;20359;-75
2021/09/21 15:11:28;;;;;;;;;;;30.10;69.90;;;;;;5068800;28;19920;-73
2021/09/21 15:14:32;;;;;;;;;;;29.80;70.40;;;;;;5070093;28;19927;-74
2021/09/21 15:17:37;;;;;;;;;;;29.40;71.00;;;;;;5070325;28;20390;-76
2021/09/21 15:20:41;;;;;;;;;;;29.10;71.90;;;;;;5069253;28;19924;-76
2021/09/21 15:23:45;;;;;;;;;;;29.10;72.50;;;;;;5057298;28;19923;-74
2021/09/21 15:26:49;;;;;;;;;;;29.10;72.20;;;;;;5049711;28;19936;-75
2021/09/21 15:29:53;;;;;;;;;;;28.70;72.40;;;;;;5068419;28;19920;-75
2021/09/21 15:32:57;;;;;;;;;;;28.50;74.10;;;;;;5069454;28;19939;-74
2021/09/21 15:36:01;;;;;;;;;;;28.30;74.40;;;;;;5069595;28;19928;-74
2021/09/21 15:39:07;;;;;;;;;;;28.00;74.60;;;;;;5065307;28;19924;-74
2021/09/21 15:42:12;;;;;;;;;;;27.70;75.20;;;;;;5057150;28;20402;-75
2021/09/21 15:45:16;;;;;;;;;;;27.60;75.90;;;;;;5071433;28;20302;-75
2021/09/21 15:48:21;;;;;;;;;;;27.40;75.70;;;;;;5071512;28;19920;-76
2021/09/21 15:51:24;;;;;;;;;;;27.20;76.60;;;;;;5071739;28;19923;-76
2021/09/21 15:54:33;;;;;;;;;;;26.90;77.10;;;;;;5072195;28;19920;-74
2021/09/21 15:57:36;;;;;;;;;;;26.70;77.70;;;;;;5053902;28;20290;-75
2021/09/21 16:00:41;;;;;;;;;;;26.40;78.80;;;;;;5066928;28;19924;-75
2021/09/21 16:03:45;;;;;;;;;;;26.20;79.30;;;;;;5073167;28;19931;-76
2021/09/21 16:06:49;;;;;;;;;;;26.00;80.00;;;;;;5052950;28;19924;-76
2021/09/21 16:09:53;;;;;;;;;;;25.80;80.50;;;;;;5069148;28;19923;-75
2021/09/21 16:12:58;;;;;;;;;;;25.70;81.00;;;;;;5073063;28;19923;-75
2021/09/21 16:16:02;;;;;;;;;;;25.60;81.80;;;;;;5052944;28;19920;-75
2021/09/21 16:19:08;;;;;;;;;;;25.40;82.20;;;;;;5070649;28;19923;-75
2021/09/21 16:22:12;;;;;;;;;;;25.40;82.60;;;;;;5072357;28;20393;-75
2021/09/21 16:25:16;;;;;;;;;;;25.30;82.90;;;;;;5072601;28;19923;-75
2021/09/21 16:28:21;;;;;;;;;;;25.10;83.40;;;;;;5072517;28;19919;-75
2021/09/21 16:31:25;;;;;;;;;;;24.90;84.30;;;;;;5059624;28;19923;-75
2021/09/21 16:34:29;;;;;;;;;;;24.80;85.30;;;;;;5060521;28;19920;-75
2021/09/21 16:37:33;;;;;;;;;;;24.60;85.50;;;;;;5062858;28;19924;-75
2021/09/21 16:40:39;;;;;;;;;;;24.50;85.60;;;;;;5063150;28;19920;-75
2021/09/21 16:43:44;;;;;;;;;;;24.30;86.70;;;;;;5060193;28;19923;-75
2021/09/21 16:46:48;;;;;;;;;;;24.10;87.60;;;;;;5071284;28;20382;-75
2021/09/21 16:49:52;;;;;;;;;;;23.90;87.90;;;;;;5071595;28;20377;-75
2021/09/21 16:52:57;;;;;;;;;;;23.70;89.00;;;;;;5071990;28;19924;-75
2021/09/21 16:56:01;;;;;;;;;;;23.50;88.40;;;;;;5051331;28;19924;-75
2021/09/21 16:59:06;;;;;;;;;;;23.30;88.50;;;;;;5068096;28;19924;-75
2021/09/21 17:02:10;;;;;;;;;;;23.10;86.80;;;;;;5072063;28;19920;-74
2021/09/21 17:05:20;;;;;;;;;;;22.90;86.70;;;;;;5072138;28;19923;-75
2021/09/21 17:08:24;;;;;;;;;;;22.70;87.20;;;;;;5058990;28;20267;-75
2021/09/21 17:11:28;;;;;;;;;;;22.60;88.30;;;;;;5071147;28;19920;-74
2021/09/21 17:14:33;;;;;;;;;;;22.40;90.90;;;;;;5071905;28;20386;-75
2021/09/21 17:17:39;;;;;;;;;;;22.20;91.70;;;;;;5067162;28;20405;-75
2021/09/21 17:20:43;;;;;;;;;;;22.00;92.50;;;;;;5070877;28;19950;-75
2021/09/21 17:23:52;;;;;;;;;;;21.80;93.30;;;;;;5071590;28;20287;-75
2021/09/21 17:26:56;;;;;;;;;;;21.60;94.00;;;;;;5071123;28;19923;-75
2021/09/21 17:30:01;;;;;;;;;;;21.30;94.80;;;;;;5070662;28;19928;-74
2021/09/21 17:33:05;;;;;;;;;;;21.10;95.90;;;;;;5071503;28;20277;-74
2021/09/21 17:36:09;;;;;;;;;;;20.90;96.60;;;;;;5051219;28;19924;-75
2021/09/21 17:39:13;;;;;;;;;;;20.70;97.50;;;;;;5058686;28;20279;-74
2021/09/21 17:42:31;;;;;;;;;;;20.40;98.20;;;;;;5058669;28;19924;-75
2021/09/21 17:45:35;;;;;;;;;;;20.10;99.50;;;;;;5071416;28;19944;-75
2021/09/21 17:48:39;;;;;;;;;;;20.00;99.90;;;;;;5069002;28;19919;-75
2021/09/21 17:51:43;;;;;;;;;;;20.00;99.90;;;;;;5070537;28;19943;-75
2021/09/21 17:54:47;;;;;;;;;;;20.10;99.90;;;;;;5070880;28;19923;-75
2021/09/21 17:57:51;;;;;;;;;;;20.00;99.90;;;;;;5070966;28;19912;-75
2021/09/21 18:00:55;;;;;;;;;;;20.00;99.90;;;;;;5070900;28;20105;-75
2021/09/21 18:04:00;;;;;;;;;;;19.90;99.90;;;;;;5070498;28;19923;-74
2021/09/21 18:07:05;;;;;;;;;;;19.80;99.90;;;;;;5058340;28;19920;-75